createdAt,value
2018-09-05T00:02:13.442Z,15.50
2018-09-05T00:04:41.317Z,15.44
2018-09-05T00:07:08.977Z,15.36
2018-09-05T00:09:36.672Z,15.43
2018-09-05T00:12:04.404Z,15.40
2018-09-05T00:14:32.093Z,15.24
2018-09-05T00:16:59.734Z,15.44
2018-09-05T00:19:27.442Z,15.39
2018-09-05T00:21:55.151Z,15.44
2018-09-05T00:24:22.924Z,15.43
2018-09-05T00:26:50.597Z,15.50
2018-09-05T00:29:18.328Z,15.38
2018-09-05T00:31:46.041Z,15.35
2018-09-05T00:34:13.709Z,15.36
2018-09-05T00:36:41.364Z,15.39
2018-09-05T00:39:09.532Z,15.45
2018-09-05T00:41:37.511Z,15.34
2018-09-05T00:44:05.268Z,15.40
2018-09-05T00:46:33.024Z,15.36
2018-09-05T00:49:01.197Z,15.34
2018-09-05T00:51:28.955Z,15.21
2018-09-05T00:53:56.601Z,15.22
2018-09-05T00:56:24.274Z,15.28
2018-09-05T00:58:51.946Z,15.28
2018-09-05T01:01:19.631Z,15.25
2018-09-05T01:03:47.324Z,15.36
2018-09-05T01:06:15.011Z,15.31
2018-09-05T01:08:42.769Z,15.36
2018-09-05T01:11:10.427Z,15.33
2018-09-05T01:13:38.113Z,15.26
2018-09-05T01:16:05.833Z,15.29
2018-09-05T01:18:33.505Z,15.22
2018-09-05T01:21:01.240Z,15.20
2018-09-05T01:23:28.905Z,15.31
2018-09-05T01:25:56.601Z,15.30
2018-09-05T01:28:24.273Z,15.31
2018-09-05T01:30:51.925Z,15.20
2018-09-05T01:33:19.753Z,15.28
2018-09-05T01:35:47.430Z,15.25
2018-09-05T01:38:15.120Z,15.32
2018-09-05T01:40:42.798Z,15.21
2018-09-05T01:43:10.502Z,15.25
2018-09-05T01:45:38.182Z,15.21
2018-09-05T01:48:05.857Z,15.23
2018-09-05T01:50:39.113Z,15.31
2018-09-05T01:53:06.765Z,15.32
2018-09-05T01:55:34.421Z,15.32
2018-09-05T01:58:02.095Z,15.28
2018-09-05T02:00:32.566Z,15.30
2018-09-05T02:03:00.314Z,15.23
2018-09-05T02:05:28.054Z,15.28
2018-09-05T02:07:55.730Z,15.25
2018-09-05T02:10:23.504Z,15.34
2018-09-05T02:12:51.198Z,15.25
2018-09-05T02:15:18.861Z,15.22
2018-09-05T02:17:46.531Z,15.34
2018-09-05T02:20:14.194Z,15.38
2018-09-05T02:22:41.868Z,15.24
2018-09-05T02:25:09.547Z,15.25
2018-09-05T02:27:37.199Z,15.29
2018-09-05T02:30:05.212Z,15.27
2018-09-05T02:32:32.894Z,15.26
2018-09-05T02:35:00.562Z,15.31
2018-09-05T02:37:28.315Z,15.25
2018-09-05T02:39:55.950Z,15.31
2018-09-05T02:42:23.670Z,15.25
2018-09-05T02:44:51.389Z,15.22
2018-09-05T02:47:19.069Z,15.22
2018-09-05T02:49:46.733Z,15.12
2018-09-05T02:52:14.386Z,15.22
2018-09-05T02:54:42.047Z,15.25
2018-09-05T02:57:09.750Z,15.25
2018-09-05T02:59:37.490Z,15.21
2018-09-05T03:02:05.241Z,15.11
2018-09-05T03:04:33.010Z,15.12
2018-09-05T03:07:00.692Z,15.17
2018-09-05T03:09:28.476Z,15.23
2018-09-05T03:11:56.130Z,15.20
2018-09-05T03:14:23.825Z,15.18
2018-09-05T03:16:51.633Z,15.15
2018-09-05T03:19:19.352Z,15.15
2018-09-05T03:21:47.116Z,15.19
2018-09-05T03:24:14.829Z,15.12
2018-09-05T03:26:42.553Z,15.17
2018-09-05T03:29:10.266Z,15.05
2018-09-05T03:31:37.957Z,15.14
2018-09-05T03:34:05.692Z,15.18
2018-09-05T03:36:33.387Z,15.17
2018-09-05T03:39:01.180Z,15.01
2018-09-05T03:41:28.904Z,15.15
2018-09-05T03:43:56.631Z,15.19
2018-09-05T03:46:24.398Z,15.17
2018-09-05T03:48:52.093Z,15.23
2018-09-05T03:51:19.790Z,15.25
2018-09-05T03:53:47.506Z,15.17
2018-09-05T03:56:15.325Z,15.16
2018-09-05T03:58:43.034Z,15.15
2018-09-05T04:01:10.828Z,15.07
2018-09-05T04:03:38.637Z,15.13
2018-09-05T04:06:06.390Z,15.16
2018-09-05T04:08:34.085Z,15.17
2018-09-05T04:11:01.829Z,15.13
2018-09-05T04:13:29.541Z,15.03
2018-09-05T04:15:57.258Z,15.14
2018-09-05T04:18:24.987Z,15.14
2018-09-05T04:20:52.728Z,14.38
2018-09-05T04:23:20.442Z,15.04
2018-09-05T04:25:48.161Z,14.98
2018-09-05T04:28:15.857Z,15.05
2018-09-05T04:30:43.584Z,15.11
2018-09-05T04:33:11.332Z,15.02
2018-09-05T04:35:39.042Z,14.96
2018-09-05T04:38:06.772Z,15.05
2018-09-05T04:40:34.501Z,15.15
2018-09-05T04:43:02.237Z,15.10
2018-09-05T04:45:30.091Z,15.03
2018-09-05T04:47:57.872Z,15.02
2018-09-05T04:50:25.693Z,15.04
2018-09-05T04:52:53.335Z,15.04
2018-09-05T04:55:21.069Z,15.11
2018-09-05T04:57:48.773Z,15.15
2018-09-05T05:00:16.505Z,15.03
2018-09-05T05:02:44.287Z,15.09
2018-09-05T05:05:12.005Z,15.11
2018-09-05T05:07:39.718Z,15.09
2018-09-05T05:10:07.431Z,15.04
2018-09-05T05:12:35.205Z,15.15
2018-09-05T05:15:02.899Z,15.06
2018-09-05T05:17:30.572Z,15.01
2018-09-05T05:19:58.299Z,15.10
2018-09-05T05:22:26.020Z,15.03
2018-09-05T05:24:53.728Z,15.07
2018-09-05T05:27:21.447Z,15.06
2018-09-05T05:29:49.167Z,15.04
2018-09-05T05:32:16.877Z,15.02
2018-09-05T05:34:44.676Z,15.09
2018-09-05T05:37:12.397Z,15.04
2018-09-05T05:39:40.082Z,15.01
2018-09-05T05:42:07.766Z,15.00
2018-09-05T05:44:35.556Z,15.02
2018-09-05T05:47:03.289Z,14.87
2018-09-05T05:49:31.048Z,15.11
2018-09-05T05:52:00.262Z,15.14
2018-09-05T05:54:29.248Z,14.64
2018-09-05T05:56:58.770Z,14.86
2018-09-05T05:59:27.402Z,15.10
2018-09-05T06:01:56.814Z,15.15
2018-09-05T06:04:26.134Z,15.19
2018-09-05T06:07:02.296Z,15.23
2018-09-05T06:09:30.493Z,15.25
2018-09-05T06:12:00.820Z,15.19
2018-09-05T06:14:37.483Z,15.10
2018-09-05T06:17:06.973Z,15.19
2018-09-05T06:19:36.517Z,15.12
2018-09-05T06:22:04.395Z,15.17
2018-09-05T06:24:35.103Z,15.22
2018-09-05T06:27:09.118Z,15.17
2018-09-05T06:29:38.102Z,15.21
2018-09-05T06:32:07.282Z,15.23
2018-09-05T06:34:36.509Z,15.22
2018-09-05T06:37:05.501Z,15.22
2018-09-05T06:39:34.181Z,15.23
2018-09-05T06:42:04.248Z,15.20
2018-09-05T06:44:33.426Z,15.22
2018-09-05T06:47:02.612Z,15.17
2018-09-05T06:49:31.615Z,15.16
2018-09-05T06:52:00.087Z,15.30
2018-09-05T06:54:28.963Z,15.35
2018-09-05T06:56:57.630Z,15.32
2018-09-05T06:59:29.118Z,15.34
2018-09-05T07:01:57.709Z,15.32
2018-09-05T07:04:27.196Z,15.38
2018-09-05T07:06:56.914Z,15.44
2018-09-05T07:09:26.192Z,15.44
2018-09-05T07:11:57.818Z,15.40
2018-09-05T07:14:27.488Z,15.43
2018-09-05T07:16:55.964Z,15.45
2018-09-05T07:19:25.064Z,15.37
2018-09-05T07:21:54.015Z,15.46
2018-09-05T07:24:24.625Z,15.44
2018-09-05T07:26:53.480Z,15.55
2018-09-05T07:29:22.111Z,15.61
2018-09-05T07:31:50.456Z,15.56
2018-09-05T07:34:19.068Z,15.53
2018-09-05T07:36:48.986Z,15.51
2018-09-05T07:39:19.296Z,15.60
2018-09-05T07:41:47.909Z,15.62
2018-09-05T07:44:16.513Z,15.68
2018-09-05T07:46:45.210Z,15.64
2018-09-05T07:49:13.883Z,15.69
2018-09-05T07:51:43.940Z,15.71
2018-09-05T07:54:11.622Z,15.80
2018-09-05T07:56:39.355Z,15.77
2018-09-05T07:59:07.162Z,15.84
2018-09-05T08:01:35.025Z,15.91
2018-09-05T08:04:02.871Z,15.80
2018-09-05T08:06:30.619Z,15.84
2018-09-05T08:08:58.304Z,15.89
2018-09-05T08:11:26.037Z,15.96
2018-09-05T08:13:53.719Z,16.11
2018-09-05T08:16:21.538Z,16.20
2018-09-05T08:18:49.214Z,16.20
2018-09-05T08:21:17.032Z,16.16
2018-09-05T08:23:44.934Z,16.14
2018-09-05T08:26:12.637Z,16.17
2018-09-05T08:28:40.327Z,16.22
2018-09-05T08:31:08.024Z,16.26
2018-09-05T08:33:35.706Z,16.26
2018-09-05T08:36:03.818Z,16.25
2018-09-05T08:38:31.265Z,16.32
2018-09-05T08:41:03.439Z,16.38
2018-09-05T08:43:31.529Z,16.32
2018-09-05T08:45:59.348Z,16.21
2018-09-05T08:48:27.110Z,16.31
2018-09-05T08:50:54.735Z,16.42
2018-09-05T08:53:22.538Z,16.50
2018-09-05T08:55:50.171Z,16.37
2018-09-05T08:58:17.865Z,16.65
2018-09-05T09:00:45.553Z,16.64
2018-09-05T09:03:13.217Z,16.59
2018-09-05T09:05:40.898Z,16.64
2018-09-05T09:08:08.694Z,16.71
2018-09-05T09:10:36.376Z,16.73
2018-09-05T09:13:04.085Z,16.68
2018-09-05T09:15:31.921Z,16.69
2018-09-05T09:17:59.665Z,16.74
2018-09-05T09:20:27.360Z,16.75
2018-09-05T09:22:55.007Z,16.76
2018-09-05T09:25:22.680Z,16.81
2018-09-05T09:27:50.434Z,16.85
2018-09-05T09:30:18.411Z,16.83
2018-09-05T09:32:46.094Z,16.82
2018-09-05T09:35:13.797Z,16.95
2018-09-05T09:37:41.484Z,16.97
2018-09-05T09:40:09.448Z,17.01
2018-09-05T09:42:37.199Z,17.02
2018-09-05T09:45:08.540Z,17.11
2018-09-05T09:47:37.733Z,17.18
2018-09-05T09:50:06.232Z,17.20
2018-09-05T09:52:39.322Z,17.21
2018-09-05T09:55:07.904Z,17.28
2018-09-05T09:57:35.981Z,17.31
2018-09-05T10:00:04.105Z,17.30
2018-09-05T10:02:37.237Z,17.32
2018-09-05T10:05:10.714Z,17.36
2018-09-05T10:07:43.961Z,17.39
2018-09-05T10:11:17.788Z,17.37
2018-09-05T10:13:51.048Z,17.33
2018-09-05T10:16:24.665Z,17.37
2018-09-05T10:18:53.541Z,17.40
2018-09-05T10:21:21.428Z,17.40
2018-09-05T10:23:49.422Z,17.44
2018-09-05T10:26:17.092Z,17.49
2018-09-05T10:28:44.777Z,17.52
2018-09-05T10:31:12.505Z,17.56
2018-09-05T10:33:40.211Z,17.64
2018-09-05T10:36:07.872Z,17.64
2018-09-05T10:38:35.586Z,17.67
2018-09-05T10:41:03.272Z,17.61
2018-09-05T10:43:30.970Z,17.64
2018-09-05T10:45:58.659Z,17.66
2018-09-05T10:48:26.408Z,17.56
2018-09-05T10:50:54.374Z,17.66
2018-09-05T10:53:22.065Z,17.54
2018-09-05T10:55:49.756Z,17.67
2018-09-05T10:58:17.557Z,17.66
2018-09-05T11:00:45.198Z,17.72
2018-09-05T11:03:12.878Z,17.76
2018-09-05T11:05:40.545Z,17.73
2018-09-05T11:08:08.238Z,17.70
2018-09-05T11:10:36.226Z,17.77
2018-09-05T11:13:03.808Z,17.76
2018-09-05T11:15:31.492Z,17.65
2018-09-05T11:17:59.149Z,17.75
2018-09-05T11:20:26.926Z,17.79
2018-09-05T11:22:54.608Z,17.80
2018-09-05T11:25:22.303Z,17.84
2018-09-05T11:27:50.055Z,17.85
2018-09-05T11:30:17.705Z,17.80
2018-09-05T11:32:45.429Z,17.85
2018-09-05T11:35:13.149Z,17.90
2018-09-05T11:37:40.878Z,17.90
2018-09-05T11:40:09.321Z,17.93
2018-09-05T11:42:37.004Z,17.96
2018-09-05T11:45:04.723Z,17.87
2018-09-05T11:47:32.447Z,17.99
2018-09-05T11:50:00.138Z,18.00
2018-09-05T11:52:27.828Z,17.94
2018-09-05T11:54:55.497Z,18.02
2018-09-05T11:57:23.203Z,18.00
2018-09-05T11:59:50.881Z,18.06
2018-09-05T12:02:18.766Z,18.06
2018-09-05T12:04:46.381Z,18.08
2018-09-05T12:07:14.092Z,18.07
2018-09-05T12:09:41.741Z,18.09
2018-09-05T12:12:24.391Z,17.99
2018-09-05T12:14:52.078Z,18.07
2018-09-05T12:17:19.813Z,18.14
2018-09-05T12:19:47.491Z,18.15
2018-09-05T12:22:15.190Z,18.11
2018-09-05T12:24:42.887Z,18.14
2018-09-05T12:27:10.574Z,18.14
2018-09-05T12:29:38.231Z,18.08
2018-09-05T12:32:05.996Z,18.10
2018-09-05T12:34:33.665Z,18.17
2018-09-05T12:37:01.337Z,18.14
2018-09-05T12:39:28.995Z,18.15
2018-09-05T12:41:56.666Z,18.17
2018-09-05T12:44:24.329Z,18.15
2018-09-05T12:46:52.769Z,18.15
2018-09-05T12:49:20.725Z,18.18
2018-09-05T12:51:48.405Z,18.11
2018-09-05T12:54:16.173Z,18.15
2018-09-05T12:56:43.853Z,18.13
2018-09-05T12:59:11.573Z,18.15
2018-09-05T13:01:39.289Z,18.15
2018-09-05T13:04:07.354Z,18.11
2018-09-05T13:06:36.214Z,18.15
2018-09-05T13:09:06.269Z,18.09
2018-09-05T13:11:33.942Z,18.19
2018-09-05T13:14:01.642Z,18.11
2018-09-05T13:16:29.338Z,18.14
2018-09-05T13:18:57.004Z,18.07
2018-09-05T13:21:24.717Z,18.02
2018-09-05T13:23:52.384Z,17.91
2018-09-05T13:26:20.091Z,18.09
2018-09-05T13:28:47.812Z,18.08
2018-09-05T13:31:15.477Z,17.79
2018-09-05T13:33:43.147Z,17.87
2018-09-05T13:36:10.967Z,18.04
2018-09-05T13:38:38.666Z,17.92
2018-09-05T13:41:06.350Z,17.58
2018-09-05T13:43:34.030Z,17.96
2018-09-05T13:46:01.962Z,18.03
2018-09-05T13:48:29.682Z,18.05
2018-09-05T13:50:57.446Z,18.10
2018-09-05T13:53:25.122Z,18.07
2018-09-05T13:55:52.783Z,18.09
2018-09-05T13:58:20.432Z,18.10
2018-09-05T14:00:48.091Z,18.11
2018-09-05T14:03:15.754Z,18.16
2018-09-05T14:05:43.476Z,18.12
2018-09-05T14:08:11.198Z,18.14
2018-09-05T14:10:38.868Z,18.07
2018-09-05T14:13:06.629Z,18.05
2018-09-05T14:15:34.349Z,18.03
2018-09-05T14:18:02.063Z,17.77
2018-09-05T14:20:29.865Z,17.97
2018-09-05T14:22:57.585Z,18.04
2018-09-05T14:25:25.259Z,17.98
2018-09-05T14:27:52.929Z,18.01
2018-09-05T14:30:20.605Z,17.87
2018-09-05T14:32:48.264Z,18.04
2018-09-05T14:35:15.938Z,17.89
2018-09-05T14:37:43.600Z,17.94
2018-09-05T14:40:11.349Z,17.85
2018-09-05T14:42:38.988Z,17.94
2018-09-05T14:45:06.675Z,17.99
2018-09-05T14:47:34.332Z,17.82
2018-09-05T14:50:02.023Z,17.94
2018-09-05T14:52:29.686Z,17.99
2018-09-05T14:54:57.385Z,17.92
2018-09-05T14:57:25.077Z,17.97
2018-09-05T14:59:52.898Z,17.94
2018-09-05T15:02:20.553Z,17.88
2018-09-05T15:04:48.247Z,17.87
2018-09-05T15:07:15.980Z,17.89
2018-09-05T15:09:43.666Z,17.88
2018-09-05T15:12:11.393Z,17.89
2018-09-05T15:14:39.058Z,17.91
2018-09-05T15:17:06.880Z,17.88
2018-09-05T15:19:34.602Z,17.70
2018-09-05T15:22:02.401Z,17.76
2018-09-05T15:24:30.171Z,17.80
2018-09-05T15:26:57.905Z,17.80
2018-09-05T15:29:25.614Z,17.71
2018-09-05T15:31:53.325Z,17.76
2018-09-05T15:34:21.046Z,17.79
2018-09-05T15:36:48.855Z,17.82
2018-09-05T15:39:16.617Z,17.77
2018-09-05T15:41:44.362Z,17.78
2018-09-05T15:44:12.065Z,17.44
2018-09-05T15:46:39.797Z,17.73
2018-09-05T15:49:07.634Z,17.76
2018-09-05T15:51:35.438Z,17.74
2018-09-05T15:54:03.383Z,17.73
2018-09-05T15:56:31.066Z,17.68
2018-09-05T15:58:58.875Z,17.55
2018-09-05T16:01:26.692Z,17.67
2018-09-05T16:03:54.422Z,17.64
2018-09-05T16:06:22.665Z,17.57
2018-09-05T16:08:51.314Z,17.64
2018-09-05T16:11:20.199Z,17.38
2018-09-05T16:13:48.370Z,17.46
2018-09-05T16:16:17.897Z,17.47
2018-09-05T16:18:46.192Z,17.48
2018-09-05T16:21:15.668Z,17.54
2018-09-05T16:23:43.393Z,17.53
2018-09-05T16:26:12.343Z,17.53
2018-09-05T16:28:40.579Z,17.55
2018-09-05T16:31:08.891Z,17.43
2018-09-05T16:33:36.677Z,17.54
2018-09-05T16:36:04.488Z,17.51
2018-09-05T16:38:32.188Z,17.47
2018-09-05T16:40:59.889Z,17.34
2018-09-05T16:43:27.639Z,17.37
2018-09-05T16:45:55.341Z,17.46
2018-09-05T16:48:23.061Z,17.41
2018-09-05T16:50:50.774Z,14.85
2018-09-05T16:53:18.463Z,17.38
2018-09-05T16:55:46.243Z,17.36
2018-09-05T16:58:13.977Z,17.34
2018-09-05T17:00:41.658Z,17.32
2018-09-05T17:03:09.336Z,17.30
2018-09-05T17:05:37.044Z,17.24
2018-09-05T17:08:04.784Z,17.23
2018-09-05T17:10:32.524Z,17.24
2018-09-05T17:13:00.223Z,17.25
2018-09-05T17:15:28.021Z,17.16
2018-09-05T17:17:56.103Z,17.09
2018-09-05T17:20:23.812Z,17.13
2018-09-05T17:22:51.638Z,17.01
2018-09-05T17:25:19.334Z,17.08
2018-09-05T17:27:47.017Z,17.03
2018-09-05T17:30:14.745Z,17.03
2018-09-05T17:32:42.458Z,17.00
2018-09-05T17:35:10.189Z,16.89
2018-09-05T17:37:37.894Z,16.93
2018-09-05T17:40:05.694Z,16.74
2018-09-05T17:42:33.373Z,16.77
2018-09-05T17:45:01.170Z,16.76
2018-09-05T17:47:28.878Z,16.77
2018-09-05T17:49:56.695Z,16.63
2018-09-05T17:52:24.418Z,16.77
2018-09-05T17:54:52.123Z,16.52
2018-09-05T17:57:19.834Z,16.70
2018-09-05T17:59:47.549Z,16.65
2018-09-05T18:02:15.236Z,16.45
2018-09-05T18:04:42.942Z,16.44
2018-09-05T18:07:10.692Z,16.45
2018-09-05T18:09:38.396Z,16.42
2018-09-05T18:12:06.499Z,16.37
2018-09-05T18:14:34.306Z,16.36
2018-09-05T18:17:02.078Z,16.28
2018-09-05T18:19:29.759Z,16.17
2018-09-05T18:21:57.425Z,16.06
2018-09-05T18:24:25.210Z,16.21
2018-09-05T18:26:52.893Z,16.25
2018-09-05T18:29:20.766Z,16.08
2018-09-05T18:31:48.442Z,15.92
2018-09-05T18:34:16.126Z,16.24
2018-09-05T18:36:43.840Z,16.01
2018-09-05T18:39:11.582Z,16.21
2018-09-05T18:41:39.385Z,16.37
2018-09-05T18:44:07.138Z,16.33
2018-09-05T18:46:34.906Z,16.36
2018-09-05T18:49:02.602Z,16.26
2018-09-05T18:51:30.451Z,16.26
2018-09-05T18:53:58.152Z,15.99
2018-09-05T18:56:25.916Z,16.17
2018-09-05T18:58:53.717Z,16.23
2018-09-05T19:01:21.460Z,15.89
2018-09-05T19:03:49.206Z,16.15
2018-09-05T19:06:16.942Z,15.97
2018-09-05T19:08:44.649Z,15.98
2018-09-05T19:11:12.356Z,15.78
2018-09-05T19:13:40.075Z,16.02
2018-09-05T19:16:07.777Z,16.04
2018-09-05T19:18:35.517Z,15.99
2018-09-05T19:21:03.285Z,15.89
2018-09-05T19:23:31.465Z,15.97
2018-09-05T19:25:59.200Z,15.84
2018-09-05T19:28:26.944Z,15.87
2018-09-05T19:30:54.738Z,16.05
2018-09-05T19:33:22.449Z,16.13
2018-09-05T19:35:50.433Z,16.05
2018-09-05T19:38:18.460Z,16.03
2018-09-05T19:40:46.212Z,16.09
2018-09-05T19:43:13.932Z,15.96
2018-09-05T19:45:41.638Z,16.12
2018-09-05T19:48:09.302Z,15.87
2018-09-05T19:50:36.962Z,15.53
2018-09-05T19:53:04.666Z,15.87
2018-09-05T19:55:32.353Z,15.64
2018-09-05T19:58:00.082Z,15.60
2018-09-05T20:00:27.734Z,15.74
2018-09-05T20:02:55.462Z,15.82
2018-09-05T20:05:23.148Z,15.97
2018-09-05T20:07:50.817Z,15.83
2018-09-05T20:10:18.482Z,15.52
2018-09-05T20:12:46.137Z,15.84
2018-09-05T20:15:13.818Z,15.80
2018-09-05T20:17:41.532Z,15.72
2018-09-05T20:20:09.201Z,15.54
2018-09-05T20:22:36.858Z,15.43
2018-09-05T20:25:04.595Z,15.63
2018-09-05T20:27:32.302Z,15.30
2018-09-05T20:29:59.992Z,15.55
2018-09-05T20:32:27.653Z,15.40
2018-09-05T20:34:55.366Z,15.44
2018-09-05T20:37:23.025Z,15.44
2018-09-05T20:39:50.761Z,15.57
2018-09-05T20:42:18.427Z,15.53
2018-09-05T20:44:46.093Z,15.41
2018-09-05T20:47:13.768Z,15.29
2018-09-05T20:49:41.536Z,15.47
2018-09-05T20:52:09.208Z,15.37
2018-09-05T20:54:36.861Z,15.46
2018-09-05T20:57:04.644Z,15.18
2018-09-05T20:59:32.287Z,15.42
2018-09-05T21:02:00.005Z,15.07
2018-09-05T21:04:27.730Z,15.16
2018-09-05T21:06:55.646Z,15.39
2018-09-05T21:09:23.323Z,15.37
2018-09-05T21:11:51.857Z,15.40
2018-09-05T21:14:19.532Z,15.39
2018-09-05T21:16:47.248Z,15.22
2018-09-05T21:19:14.912Z,14.93
2018-09-05T21:21:42.567Z,14.94
2018-09-05T21:24:10.217Z,14.89
2018-09-05T21:26:37.948Z,14.96
2018-09-05T21:29:05.617Z,14.77
2018-09-05T21:31:33.276Z,14.67
2018-09-05T21:34:00.924Z,14.71
2018-09-05T21:36:28.601Z,15.03
2018-09-05T21:38:56.251Z,14.66
2018-09-05T21:41:23.918Z,14.69
2018-09-05T21:43:51.577Z,14.65
2018-09-05T21:46:19.245Z,14.79
2018-09-05T21:48:46.924Z,14.58
2018-09-05T21:51:14.590Z,14.66
2018-09-05T21:53:42.262Z,14.78
2018-09-05T21:56:09.920Z,14.70
2018-09-05T21:58:37.602Z,14.59
2018-09-05T22:01:05.294Z,14.48
2018-09-05T22:03:32.969Z,14.48
2018-09-05T22:06:00.628Z,14.55
2018-09-05T22:08:28.311Z,14.65
2018-09-05T22:10:57.666Z,14.72
2018-09-05T22:13:25.373Z,14.86
2018-09-05T22:15:53.023Z,14.80
2018-09-05T22:18:20.689Z,14.50
2018-09-05T22:20:48.346Z,14.45
2018-09-05T22:23:15.992Z,14.76
2018-09-05T22:25:43.661Z,14.84
2018-09-05T22:28:11.318Z,14.52
2018-09-05T22:30:38.997Z,14.73
2018-09-05T22:33:06.989Z,14.82
2018-09-05T22:35:34.636Z,14.85
2018-09-05T22:38:02.326Z,14.99
2018-09-05T22:40:31.773Z,14.97
2018-09-05T22:43:11.322Z,14.76
2018-09-05T22:45:50.066Z,14.63
2018-09-05T22:48:34.345Z,14.81
2018-09-05T22:51:18.894Z,14.94
2018-09-05T22:54:10.106Z,14.60
2018-09-05T22:59:01.238Z,14.49
2018-09-05T23:02:47.278Z,14.40
2018-09-05T23:06:24.356Z,14.62
2018-09-05T23:08:52.026Z,14.74
2018-09-05T23:11:37.573Z,14.47
2018-09-05T23:14:16.368Z,14.79
2018-09-05T23:17:53.547Z,14.71
2018-09-05T23:20:30.196Z,14.79
2018-09-05T23:24:10.113Z,14.55
2018-09-05T23:26:37.928Z,14.47
2018-09-05T23:29:05.622Z,14.45
2018-09-05T23:31:33.317Z,14.58
2018-09-05T23:34:00.986Z,14.69
2018-09-05T23:36:28.689Z,14.54
2018-09-05T23:38:56.362Z,14.46
2018-09-05T23:41:24.037Z,14.57
2018-09-05T23:43:51.737Z,14.70
2018-09-05T23:46:19.436Z,14.69
2018-09-05T23:48:47.160Z,14.42
2018-09-05T23:51:14.886Z,14.21
2018-09-05T23:53:42.565Z,14.54
2018-09-05T23:56:10.254Z,14.46
2018-09-05T23:58:37.940Z,14.41
